sensor_id;sensor_type;location;lat;lon;timestamp;P1;durP1;ratioP1;P2;durP2;ratioP2
4724;SDS011;2376;53.544;10.226;2022-12-20T00:00:46;18.50;;;9.80;;
4724;SDS011;2376;53.544;10.226;2022-12-20T00:03:12;14.87;;;10.10;;
4724;SDS011;2376;53.544;10.226;2022-12-20T00:05:39;11.70;;;10.50;;
4724;SDS011;2376;53.544;10.226;2022-12-20T00:08:07;14.80;;;10.50;;
4724;SDS011;2376;53.544;10.226;2022-12-20T00:10:36;11.30;;;10.10;;
4724;SDS011;2376;53.544;10.226;2022-12-20T00:13:03;14.43;;;10.87;;
4724;SDS011;2376;53.544;10.226;2022-12-20T00:15:30;12.40;;;10.00;;
4724;SDS011;2376;53.544;10.226;2022-12-20T00:17:57;11.40;;;9.70;;
4724;SDS011;2376;53.544;10.226;2022-12-20T00:20:24;13.07;;;10.93;;
4724;SDS011;2376;53.544;10.226;2022-12-20T00:22:51;13.17;;;10.57;;
4724;SDS011;2376;53.544;10.226;2022-12-20T00:25:18;11.93;;;10.40;;
4724;SDS011;2376;53.544;10.226;2022-12-20T00:27:47;11.50;;;10.30;;
4724;SDS011;2376;53.544;10.226;2022-12-20T00:30:14;11.87;;;9.73;;
4724;SDS011;2376;53.544;10.226;2022-12-20T00:32:42;14.90;;;10.37;;
4724;SDS011;2376;53.544;10.226;2022-12-20T00:35:09;12.13;;;10.53;;
4724;SDS011;2376;53.544;10.226;2022-12-20T00:37:37;12.00;;;10.53;;
4724;SDS011;2376;53.544;10.226;2022-12-20T00:40:04;11.03;;;10.03;;
4724;SDS011;2376;53.544;10.226;2022-12-20T00:42:31;13.90;;;9.70;;
4724;SDS011;2376;53.544;10.226;2022-12-20T00:44:59;9.60;;;8.67;;
4724;SDS011;2376;53.544;10.226;2022-12-20T00:47:26;17.60;;;9.87;;
4724;SDS011;2376;53.544;10.226;2022-12-20T00:49:53;12.93;;;10.53;;
4724;SDS011;2376;53.544;10.226;2022-12-20T00:52:20;12.10;;;10.23;;
4724;SDS011;2376;53.544;10.226;2022-12-20T00:54:47;10.80;;;9.50;;
4724;SDS011;2376;53.544;10.226;2022-12-20T00:57:14;10.90;;;9.57;;
4724;SDS011;2376;53.544;10.226;2022-12-20T00:59:40;16.30;;;10.60;;
4724;SDS011;2376;53.544;10.226;2022-12-20T01:02:08;12.13;;;10.50;;
4724;SDS011;2376;53.544;10.226;2022-12-20T01:04:35;13.93;;;9.97;;
4724;SDS011;2376;53.544;10.226;2022-12-20T01:07:01;11.33;;;9.23;;
4724;SDS011;2376;53.544;10.226;2022-12-20T01:09:28;10.60;;;9.40;;
4724;SDS011;2376;53.544;10.226;2022-12-20T01:11:56;10.73;;;8.93;;
4724;SDS011;2376;53.544;10.226;2022-12-20T01:14:22;13.20;;;9.80;;
4724;SDS011;2376;53.544;10.226;2022-12-20T01:16:49;10.73;;;9.63;;
4724;SDS011;2376;53.544;10.226;2022-12-20T01:19:17;10.37;;;9.37;;
4724;SDS011;2376;53.544;10.226;2022-12-20T01:21:44;10.40;;;8.63;;
4724;SDS011;2376;53.544;10.226;2022-12-20T01:24:12;11.97;;;9.20;;
4724;SDS011;2376;53.544;10.226;2022-12-20T01:26:40;11.10;;;8.70;;
4724;SDS011;2376;53.544;10.226;2022-12-20T01:29:06;9.73;;;8.77;;
4724;SDS011;2376;53.544;10.226;2022-12-20T01:31:33;10.87;;;8.87;;
4724;SDS011;2376;53.544;10.226;2022-12-20T01:34:00;9.70;;;8.70;;
4724;SDS011;2376;53.544;10.226;2022-12-20T01:36:29;10.60;;;8.30;;
4724;SDS011;2376;53.544;10.226;2022-12-20T01:38:58;11.80;;;9.70;;
4724;SDS011;2376;53.544;10.226;2022-12-20T01:41:26;10.37;;;8.63;;
4724;SDS011;2376;53.544;10.226;2022-12-20T01:43:55;11.80;;;9.37;;
4724;SDS011;2376;53.544;10.226;2022-12-20T01:46:23;11.73;;;9.20;;
4724;SDS011;2376;53.544;10.226;2022-12-20T01:48:53;11.90;;;10.00;;
4724;SDS011;2376;53.544;10.226;2022-12-20T01:51:23;10.57;;;9.43;;
4724;SDS011;2376;53.544;10.226;2022-12-20T01:53:53;11.00;;;9.07;;
4724;SDS011;2376;53.544;10.226;2022-12-20T01:56:23;12.10;;;10.70;;
4724;SDS011;2376;53.544;10.226;2022-12-20T01:58:50;10.53;;;9.43;;
4724;SDS011;2376;53.544;10.226;2022-12-20T02:03:47;14.20;;;10.07;;
4724;SDS011;2376;53.544;10.226;2022-12-20T02:06:16;10.23;;;8.57;;
4724;SDS011;2376;53.544;10.226;2022-12-20T02:08:44;12.23;;;8.73;;
4724;SDS011;2376;53.544;10.226;2022-12-20T02:11:18;10.10;;;9.10;;
4724;SDS011;2376;53.544;10.226;2022-12-20T02:13:55;12.67;;;9.90;;
4724;SDS011;2376;53.544;10.226;2022-12-20T02:16:31;11.17;;;9.70;;
4724;SDS011;2376;53.544;10.226;2022-12-20T02:19:08;10.07;;;9.10;;
4724;SDS011;2376;53.544;10.226;2022-12-20T02:21:48;10.30;;;8.77;;
4724;SDS011;2376;53.544;10.226;2022-12-20T02:24:34;11.70;;;8.73;;
4724;SDS011;2376;53.544;10.226;2022-12-20T02:27:28;11.60;;;9.60;;
4724;SDS011;2376;53.544;10.226;2022-12-20T02:30:09;11.03;;;8.67;;
4724;SDS011;2376;53.544;10.226;2022-12-20T02:32:39;15.00;;;8.83;;
4724;SDS011;2376;53.544;10.226;2022-12-20T02:35:13;11.73;;;8.80;;
4724;SDS011;2376;53.544;10.226;2022-12-20T02:37:46;11.00;;;8.97;;
4724;SDS011;2376;53.544;10.226;2022-12-20T02:40:14;11.33;;;9.53;;
4724;SDS011;2376;53.544;10.226;2022-12-20T02:42:44;9.40;;;8.50;;
4724;SDS011;2376;53.544;10.226;2022-12-20T02:45:14;10.47;;;9.40;;
4724;SDS011;2376;53.544;10.226;2022-12-20T02:47:41;10.03;;;9.13;;
4724;SDS011;2376;53.544;10.226;2022-12-20T02:50:20;9.53;;;8.60;;
4724;SDS011;2376;53.544;10.226;2022-12-20T02:52:49;11.50;;;9.37;;
4724;SDS011;2376;53.544;10.226;2022-12-20T02:55:17;10.00;;;9.00;;
4724;SDS011;2376;53.544;10.226;2022-12-20T02:57:47;11.63;;;9.43;;
4724;SDS011;2376;53.544;10.226;2022-12-20T03:00:18;10.87;;;7.97;;
4724;SDS011;2376;53.544;10.226;2022-12-20T03:02:47;9.43;;;8.50;;
4724;SDS011;2376;53.544;10.226;2022-12-20T03:05:33;10.87;;;8.17;;
4724;SDS011;2376;53.544;10.226;2022-12-20T03:08:08;10.20;;;8.80;;
4724;SDS011;2376;53.544;10.226;2022-12-20T03:10:35;9.57;;;8.67;;
4724;SDS011;2376;53.544;10.226;2022-12-20T03:13:17;10.47;;;8.83;;
4724;SDS011;2376;53.544;10.226;2022-12-20T03:15:45;9.47;;;8.60;;
4724;SDS011;2376;53.544;10.226;2022-12-20T03:18:12;8.70;;;7.90;;
4724;SDS011;2376;53.544;10.226;2022-12-20T03:20:39;10.07;;;8.13;;
4724;SDS011;2376;53.544;10.226;2022-12-20T03:23:05;9.40;;;7.70;;
4724;SDS011;2376;53.544;10.226;2022-12-20T03:25:32;8.80;;;7.93;;
4724;SDS011;2376;53.544;10.226;2022-12-20T03:27:59;8.93;;;8.03;;
4724;SDS011;2376;53.544;10.226;2022-12-20T03:30:26;8.50;;;7.57;;
4724;SDS011;2376;53.544;10.226;2022-12-20T03:32:54;8.83;;;7.93;;
4724;SDS011;2376;53.544;10.226;2022-12-20T03:35:20;11.07;;;8.53;;
4724;SDS011;2376;53.544;10.226;2022-12-20T03:37:47;11.77;;;8.77;;
4724;SDS011;2376;53.544;10.226;2022-12-20T03:40:14;9.50;;;7.03;;
4724;SDS011;2376;53.544;10.226;2022-12-20T03:42:40;8.40;;;7.60;;
4724;SDS011;2376;53.544;10.226;2022-12-20T03:45:08;9.20;;;8.07;;
4724;SDS011;2376;53.544;10.226;2022-12-20T03:47:35;8.70;;;7.90;;
4724;SDS011;2376;53.544;10.226;2022-12-20T03:50:03;10.63;;;7.93;;
4724;SDS011;2376;53.544;10.226;2022-12-20T03:52:31;8.33;;;7.37;;
4724;SDS011;2376;53.544;10.226;2022-12-20T03:54:58;9.27;;;8.10;;
4724;SDS011;2376;53.544;10.226;2022-12-20T03:57:24;9.23;;;8.40;;
4724;SDS011;2376;53.544;10.226;2022-12-20T03:59:51;8.57;;;7.70;;
4724;SDS011;2376;53.544;10.226;2022-12-20T04:02:18;11.03;;;8.30;;
4724;SDS011;2376;53.544;10.226;2022-12-20T04:04:45;8.63;;;7.73;;
4724;SDS011;2376;53.544;10.226;2022-12-20T04:07:13;10.60;;;8.27;;
4724;SDS011;2376;53.544;10.226;2022-12-20T04:09:40;9.57;;;8.43;;
4724;SDS011;2376;53.544;10.226;2022-12-20T04:12:07;8.43;;;7.53;;
4724;SDS011;2376;53.544;10.226;2022-12-20T04:14:33;9.60;;;8.43;;
4724;SDS011;2376;53.544;10.226;2022-12-20T04:17:01;10.27;;;9.20;;
4724;SDS011;2376;53.544;10.226;2022-12-20T04:19:28;10.57;;;8.63;;
4724;SDS011;2376;53.544;10.226;2022-12-20T04:21:54;8.50;;;7.70;;
4724;SDS011;2376;53.544;10.226;2022-12-20T04:24:24;10.13;;;8.03;;
4724;SDS011;2376;53.544;10.226;2022-12-20T04:26:50;9.17;;;8.27;;
4724;SDS011;2376;53.544;10.226;2022-12-20T04:29:17;10.27;;;8.67;;
4724;SDS011;2376;53.544;10.226;2022-12-20T04:31:43;10.10;;;7.90;;
4724;SDS011;2376;53.544;10.226;2022-12-20T04:34:10;8.70;;;7.40;;
4724;SDS011;2376;53.544;10.226;2022-12-20T04:36:37;14.07;;;9.37;;
4724;SDS011;2376;53.544;10.226;2022-12-20T04:39:03;9.67;;;7.60;;
4724;SDS011;2376;53.544;10.226;2022-12-20T04:41:31;9.70;;;8.80;;
4724;SDS011;2376;53.544;10.226;2022-12-20T04:43:58;9.60;;;8.70;;
4724;SDS011;2376;53.544;10.226;2022-12-20T04:46:25;11.00;;;7.93;;
4724;SDS011;2376;53.544;10.226;2022-12-20T04:48:52;9.83;;;8.77;;
4724;SDS011;2376;53.544;10.226;2022-12-20T04:51:19;10.73;;;8.27;;
4724;SDS011;2376;53.544;10.226;2022-12-20T04:53:46;10.30;;;9.20;;
4724;SDS011;2376;53.544;10.226;2022-12-20T04:56:12;12.77;;;9.50;;
4724;SDS011;2376;53.544;10.226;2022-12-20T04:58:41;12.93;;;9.30;;
4724;SDS011;2376;53.544;10.226;2022-12-20T05:01:08;11.07;;;9.77;;
4724;SDS011;2376;53.544;10.226;2022-12-20T05:03:35;10.80;;;9.30;;
4724;SDS011;2376;53.544;10.226;2022-12-20T05:06:02;12.17;;;9.10;;
4724;SDS011;2376;53.544;10.226;2022-12-20T05:08:29;10.50;;;9.40;;
4724;SDS011;2376;53.544;10.226;2022-12-20T05:10:56;14.80;;;9.80;;
4724;SDS011;2376;53.544;10.226;2022-12-20T05:13:23;10.10;;;9.20;;
4724;SDS011;2376;53.544;10.226;2022-12-20T05:15:51;10.40;;;9.30;;
4724;SDS011;2376;53.544;10.226;2022-12-20T05:18:19;11.63;;;10.47;;
4724;SDS011;2376;53.544;10.226;2022-12-20T05:20:46;14.23;;;9.70;;
4724;SDS011;2376;53.544;10.226;2022-12-20T05:23:13;9.53;;;8.63;;
4724;SDS011;2376;53.544;10.226;2022-12-20T05:25:57;12.70;;;9.97;;
4724;SDS011;2376;53.544;10.226;2022-12-20T05:28:42;10.30;;;9.30;;
4724;SDS011;2376;53.544;10.226;2022-12-20T05:31:10;10.83;;;9.53;;
4724;SDS011;2376;53.544;10.226;2022-12-20T05:33:37;12.17;;;10.10;;
4724;SDS011;2376;53.544;10.226;2022-12-20T05:36:04;9.90;;;8.63;;
4724;SDS011;2376;53.544;10.226;2022-12-20T05:38:30;12.13;;;9.73;;
4724;SDS011;2376;53.544;10.226;2022-12-20T05:40:57;14.37;;;11.03;;
4724;SDS011;2376;53.544;10.226;2022-12-20T05:43:24;13.97;;;9.10;;
4724;SDS011;2376;53.544;10.226;2022-12-20T05:45:51;14.50;;;9.97;;
4724;SDS011;2376;53.544;10.226;2022-12-20T05:48:20;11.17;;;10.07;;
4724;SDS011;2376;53.544;10.226;2022-12-20T05:50:46;12.60;;;10.70;;
4724;SDS011;2376;53.544;10.226;2022-12-20T05:53:14;12.57;;;11.30;;
4724;SDS011;2376;53.544;10.226;2022-12-20T05:55:42;11.30;;;10.20;;
4724;SDS011;2376;53.544;10.226;2022-12-20T05:58:10;11.87;;;10.53;;
4724;SDS011;2376;53.544;10.226;2022-12-20T06:00:38;11.90;;;10.70;;
4724;SDS011;2376;53.544;10.226;2022-12-20T06:03:05;13.60;;;11.27;;
4724;SDS011;2376;53.544;10.226;2022-12-20T06:05:34;14.33;;;11.73;;
4724;SDS011;2376;53.544;10.226;2022-12-20T06:08:01;12.53;;;11.23;;
4724;SDS011;2376;53.544;10.226;2022-12-20T06:10:28;14.73;;;12.50;;
4724;SDS011;2376;53.544;10.226;2022-12-20T06:12:55;14.17;;;11.63;;
4724;SDS011;2376;53.544;10.226;2022-12-20T06:15:22;13.77;;;11.10;;
4724;SDS011;2376;53.544;10.226;2022-12-20T06:17:48;13.60;;;11.80;;
4724;SDS011;2376;53.544;10.226;2022-12-20T06:20:15;11.13;;;10.03;;
4724;SDS011;2376;53.544;10.226;2022-12-20T06:22:43;13.17;;;10.40;;
4724;SDS011;2376;53.544;10.226;2022-12-20T06:25:10;12.23;;;9.60;;
4724;SDS011;2376;53.544;10.226;2022-12-20T06:27:39;13.70;;;10.90;;
4724;SDS011;2376;53.544;10.226;2022-12-20T06:30:06;13.83;;;10.90;;
4724;SDS011;2376;53.544;10.226;2022-12-20T06:32:34;12.70;;;11.40;;
4724;SDS011;2376;53.544;10.226;2022-12-20T06:35:01;12.13;;;9.80;;
4724;SDS011;2376;53.544;10.226;2022-12-20T06:37:27;11.47;;;9.40;;
4724;SDS011;2376;53.544;10.226;2022-12-20T06:39:55;12.80;;;11.53;;
4724;SDS011;2376;53.544;10.226;2022-12-20T06:42:22;12.20;;;10.93;;
4724;SDS011;2376;53.544;10.226;2022-12-20T06:44:49;13.47;;;11.27;;
4724;SDS011;2376;53.544;10.226;2022-12-20T06:47:16;13.50;;;10.30;;
4724;SDS011;2376;53.544;10.226;2022-12-20T06:49:42;13.80;;;10.80;;
4724;SDS011;2376;53.544;10.226;2022-12-20T06:52:09;12.50;;;10.90;;
4724;SDS011;2376;53.544;10.226;2022-12-20T06:54:36;13.13;;;10.50;;
4724;SDS011;2376;53.544;10.226;2022-12-20T06:57:04;15.93;;;12.23;;
4724;SDS011;2376;53.544;10.226;2022-12-20T06:59:31;13.47;;;11.60;;
4724;SDS011;2376;53.544;10.226;2022-12-20T07:01:57;13.40;;;11.43;;
4724;SDS011;2376;53.544;10.226;2022-12-20T07:04:24;15.60;;;11.90;;
4724;SDS011;2376;53.544;10.226;2022-12-20T07:06:51;13.70;;;11.03;;
4724;SDS011;2376;53.544;10.226;2022-12-20T07:09:18;17.00;;;12.10;;
4724;SDS011;2376;53.544;10.226;2022-12-20T07:11:44;14.50;;;11.90;;
4724;SDS011;2376;53.544;10.226;2022-12-20T07:14:12;12.87;;;11.20;;
4724;SDS011;2376;53.544;10.226;2022-12-20T07:16:39;14.47;;;11.30;;
4724;SDS011;2376;53.544;10.226;2022-12-20T07:19:08;13.00;;;10.63;;
4724;SDS011;2376;53.544;10.226;2022-12-20T07:21:36;15.30;;;11.10;;
4724;SDS011;2376;53.544;10.226;2022-12-20T07:24:03;15.47;;;11.43;;
4724;SDS011;2376;53.544;10.226;2022-12-20T07:26:30;14.93;;;12.30;;
4724;SDS011;2376;53.544;10.226;2022-12-20T07:28:57;13.23;;;11.93;;
4724;SDS011;2376;53.544;10.226;2022-12-20T07:31:25;12.67;;;11.33;;
4724;SDS011;2376;53.544;10.226;2022-12-20T07:33:52;14.10;;;12.20;;
4724;SDS011;2376;53.544;10.226;2022-12-20T07:36:19;18.30;;;13.03;;
4724;SDS011;2376;53.544;10.226;2022-12-20T07:38:46;13.90;;;12.37;;
4724;SDS011;2376;53.544;10.226;2022-12-20T07:41:13;14.83;;;12.63;;
4724;SDS011;2376;53.544;10.226;2022-12-20T07:43:41;13.03;;;11.73;;
4724;SDS011;2376;53.544;10.226;2022-12-20T07:46:08;17.20;;;12.70;;
4724;SDS011;2376;53.544;10.226;2022-12-20T07:48:39;16.80;;;14.97;;
4724;SDS011;2376;53.544;10.226;2022-12-20T07:51:07;21.10;;;15.17;;
4724;SDS011;2376;53.544;10.226;2022-12-20T07:53:36;20.13;;;12.63;;
4724;SDS011;2376;53.544;10.226;2022-12-20T07:56:05;16.63;;;13.73;;
4724;SDS011;2376;53.544;10.226;2022-12-20T07:58:33;19.13;;;14.30;;
4724;SDS011;2376;53.544;10.226;2022-12-20T08:01:02;19.60;;;15.00;;
4724;SDS011;2376;53.544;10.226;2022-12-20T08:03:30;18.37;;;13.53;;
4724;SDS011;2376;53.544;10.226;2022-12-20T08:06:02;21.70;;;13.87;;
4724;SDS011;2376;53.544;10.226;2022-12-20T08:08:32;15.10;;;13.20;;
4724;SDS011;2376;53.544;10.226;2022-12-20T08:11:01;20.10;;;13.33;;
4724;SDS011;2376;53.544;10.226;2022-12-20T08:13:30;18.77;;;14.10;;
4724;SDS011;2376;53.544;10.226;2022-12-20T08:15:57;13.90;;;12.40;;
4724;SDS011;2376;53.544;10.226;2022-12-20T08:18:25;14.33;;;12.83;;
4724;SDS011;2376;53.544;10.226;2022-12-20T08:20:52;18.03;;;13.30;;
4724;SDS011;2376;53.544;10.226;2022-12-20T08:23:20;15.47;;;13.83;;
4724;SDS011;2376;53.544;10.226;2022-12-20T08:25:46;17.50;;;13.80;;
4724;SDS011;2376;53.544;10.226;2022-12-20T08:28:14;19.03;;;13.33;;
4724;SDS011;2376;53.544;10.226;2022-12-20T08:30:41;16.20;;;11.70;;
4724;SDS011;2376;53.544;10.226;2022-12-20T08:33:07;24.97;;;14.40;;
4724;SDS011;2376;53.544;10.226;2022-12-20T08:35:34;13.93;;;12.30;;
4724;SDS011;2376;53.544;10.226;2022-12-20T08:38:01;18.80;;;14.03;;
4724;SDS011;2376;53.544;10.226;2022-12-20T08:40:29;16.23;;;13.17;;
4724;SDS011;2376;53.544;10.226;2022-12-20T08:42:57;18.83;;;12.20;;
4724;SDS011;2376;53.544;10.226;2022-12-20T08:45:23;16.47;;;12.90;;
4724;SDS011;2376;53.544;10.226;2022-12-20T08:47:50;17.53;;;13.80;;
4724;SDS011;2376;53.544;10.226;2022-12-20T08:50:18;18.97;;;13.57;;
4724;SDS011;2376;53.544;10.226;2022-12-20T08:52:45;17.53;;;13.60;;
4724;SDS011;2376;53.544;10.226;2022-12-20T08:55:11;21.93;;;15.60;;
4724;SDS011;2376;53.544;10.226;2022-12-20T08:57:39;17.37;;;13.30;;
4724;SDS011;2376;53.544;10.226;2022-12-20T09:00:07;15.13;;;13.53;;
4724;SDS011;2376;53.544;10.226;2022-12-20T09:02:34;15.57;;;13.47;;
4724;SDS011;2376;53.544;10.226;2022-12-20T09:05:02;16.43;;;13.97;;
4724;SDS011;2376;53.544;10.226;2022-12-20T09:07:29;19.10;;;13.23;;
4724;SDS011;2376;53.544;10.226;2022-12-20T09:09:55;16.70;;;14.77;;
4724;SDS011;2376;53.544;10.226;2022-12-20T09:12:22;15.10;;;12.40;;
4724;SDS011;2376;53.544;10.226;2022-12-20T09:14:50;17.47;;;14.23;;
4724;SDS011;2376;53.544;10.226;2022-12-20T09:17:17;20.53;;;14.50;;
4724;SDS011;2376;53.544;10.226;2022-12-20T09:19:43;16.47;;;14.50;;
4724;SDS011;2376;53.544;10.226;2022-12-20T09:22:10;15.80;;;14.07;;
4724;SDS011;2376;53.544;10.226;2022-12-20T09:24:37;18.63;;;13.70;;
4724;SDS011;2376;53.544;10.226;2022-12-20T09:27:03;16.83;;;15.00;;
4724;SDS011;2376;53.544;10.226;2022-12-20T09:29:30;18.73;;;15.17;;
4724;SDS011;2376;53.544;10.226;2022-12-20T09:31:58;15.13;;;13.53;;
4724;SDS011;2376;53.544;10.226;2022-12-20T09:34:25;15.60;;;14.00;;
4724;SDS011;2376;53.544;10.226;2022-12-20T09:36:52;15.30;;;13.50;;
4724;SDS011;2376;53.544;10.226;2022-12-20T09:39:19;18.07;;;15.00;;
4724;SDS011;2376;53.544;10.226;2022-12-20T09:41:45;18.07;;;13.47;;
4724;SDS011;2376;53.544;10.226;2022-12-20T09:44:15;17.17;;;13.27;;
4724;SDS011;2376;53.544;10.226;2022-12-20T09:46:46;20.87;;;14.00;;
4724;SDS011;2376;53.544;10.226;2022-12-20T09:49:19;19.03;;;14.23;;
4724;SDS011;2376;53.544;10.226;2022-12-20T09:52:07;19.77;;;13.70;;
4724;SDS011;2376;53.544;10.226;2022-12-20T09:54:45;14.03;;;12.63;;
4724;SDS011;2376;53.544;10.226;2022-12-20T09:57:23;19.17;;;12.73;;
4724;SDS011;2376;53.544;10.226;2022-12-20T09:59:55;16.37;;;14.67;;
4724;SDS011;2376;53.544;10.226;2022-12-20T10:02:23;19.20;;;14.47;;
4724;SDS011;2376;53.544;10.226;2022-12-20T10:04:53;14.20;;;12.20;;
4724;SDS011;2376;53.544;10.226;2022-12-20T10:07:22;16.00;;;12.43;;
4724;SDS011;2376;53.544;10.226;2022-12-20T10:10:02;18.20;;;13.27;;
4724;SDS011;2376;53.544;10.226;2022-12-20T10:12:54;17.00;;;12.80;;
4724;SDS011;2376;53.544;10.226;2022-12-20T10:15:27;14.83;;;12.80;;
4724;SDS011;2376;53.544;10.226;2022-12-20T10:18:02;18.50;;;13.83;;
4724;SDS011;2376;53.544;10.226;2022-12-20T10:20:49;12.63;;;11.53;;
4724;SDS011;2376;53.544;10.226;2022-12-20T10:23:24;13.27;;;11.03;;
4724;SDS011;2376;53.544;10.226;2022-12-20T10:25:55;13.87;;;12.50;;
4724;SDS011;2376;53.544;10.226;2022-12-20T10:28:24;12.27;;;10.83;;
4724;SDS011;2376;53.544;10.226;2022-12-20T10:30:55;14.10;;;10.63;;
4724;SDS011;2376;53.544;10.226;2022-12-20T10:33:25;13.17;;;11.77;;
4724;SDS011;2376;53.544;10.226;2022-12-20T10:35:55;13.37;;;11.67;;
4724;SDS011;2376;53.544;10.226;2022-12-20T10:38:45;16.30;;;12.80;;
4724;SDS011;2376;53.544;10.226;2022-12-20T10:41:14;12.83;;;11.47;;
4724;SDS011;2376;53.544;10.226;2022-12-20T10:43:43;15.50;;;13.10;;
4724;SDS011;2376;53.544;10.226;2022-12-20T10:46:12;16.00;;;13.33;;
4724;SDS011;2376;53.544;10.226;2022-12-20T10:48:42;14.20;;;12.77;;
4724;SDS011;2376;53.544;10.226;2022-12-20T10:51:14;16.50;;;14.07;;
4724;SDS011;2376;53.544;10.226;2022-12-20T10:53:56;13.47;;;12.07;;
4724;SDS011;2376;53.544;10.226;2022-12-20T10:56:25;12.67;;;11.33;;
4724;SDS011;2376;53.544;10.226;2022-12-20T10:58:55;13.47;;;12.13;;
4724;SDS011;2376;53.544;10.226;2022-12-20T11:01:24;12.93;;;11.07;;
4724;SDS011;2376;53.544;10.226;2022-12-20T11:03:55;14.10;;;12.33;;
4724;SDS011;2376;53.544;10.226;2022-12-20T11:06:26;13.80;;;12.00;;
4724;SDS011;2376;53.544;10.226;2022-12-20T11:09:22;13.43;;;10.77;;
4724;SDS011;2376;53.544;10.226;2022-12-20T11:11:57;14.13;;;12.27;;
4724;SDS011;2376;53.544;10.226;2022-12-20T11:14:26;14.33;;;12.50;;
4724;SDS011;2376;53.544;10.226;2022-12-20T11:16:53;14.10;;;10.33;;
4724;SDS011;2376;53.544;10.226;2022-12-20T11:19:43;13.90;;;10.93;;
4724;SDS011;2376;53.544;10.226;2022-12-20T11:22:23;12.70;;;10.60;;
4724;SDS011;2376;53.544;10.226;2022-12-20T11:24:59;11.17;;;10.07;;
4724;SDS011;2376;53.544;10.226;2022-12-20T11:27:43;13.63;;;11.83;;
4724;SDS011;2376;53.544;10.226;2022-12-20T11:30:21;12.63;;;10.80;;
4724;SDS011;2376;53.544;10.226;2022-12-20T11:32:55;13.93;;;10.80;;
4724;SDS011;2376;53.544;10.226;2022-12-20T11:35:42;11.73;;;10.53;;
4724;SDS011;2376;53.544;10.226;2022-12-20T11:38:21;11.47;;;9.50;;
4724;SDS011;2376;53.544;10.226;2022-12-20T11:41:03;12.67;;;11.30;;
4724;SDS011;2376;53.544;10.226;2022-12-20T11:43:38;14.33;;;12.20;;
4724;SDS011;2376;53.544;10.226;2022-12-20T11:46:19;13.40;;;11.53;;
4724;SDS011;2376;53.544;10.226;2022-12-20T11:49:09;12.10;;;10.43;;
4724;SDS011;2376;53.544;10.226;2022-12-20T11:51:56;11.73;;;9.87;;
4724;SDS011;2376;53.544;10.226;2022-12-20T11:54:31;10.87;;;9.90;;
4724;SDS011;2376;53.544;10.226;2022-12-20T11:57:03;15.70;;;11.27;;
4724;SDS011;2376;53.544;10.226;2022-12-20T11:59:38;11.87;;;10.83;;
4724;SDS011;2376;53.544;10.226;2022-12-20T12:02:09;12.27;;;9.93;;
4724;SDS011;2376;53.544;10.226;2022-12-20T12:04:40;11.00;;;9.90;;
4724;SDS011;2376;53.544;10.226;2022-12-20T12:07:11;11.80;;;10.60;;
4724;SDS011;2376;53.544;10.226;2022-12-20T12:09:44;9.70;;;8.90;;
4724;SDS011;2376;53.544;10.226;2022-12-20T12:12:21;11.73;;;9.20;;
4724;SDS011;2376;53.544;10.226;2022-12-20T12:14:53;8.90;;;8.10;;
4724;SDS011;2376;53.544;10.226;2022-12-20T12:17:27;12.23;;;9.10;;
4724;SDS011;2376;53.544;10.226;2022-12-20T12:20:03;10.53;;;9.13;;
4724;SDS011;2376;53.544;10.226;2022-12-20T12:22:43;15.23;;;9.50;;
4724;SDS011;2376;53.544;10.226;2022-12-20T12:25:12;9.50;;;8.60;;
4724;SDS011;2376;53.544;10.226;2022-12-20T12:27:44;9.50;;;8.60;;
4724;SDS011;2376;53.544;10.226;2022-12-20T12:30:11;10.20;;;8.83;;
4724;SDS011;2376;53.544;10.226;2022-12-20T12:32:40;12.87;;;9.07;;
4724;SDS011;2376;53.544;10.226;2022-12-20T12:35:16;10.23;;;9.00;;
4724;SDS011;2376;53.544;10.226;2022-12-20T12:38:07;9.27;;;8.37;;
4724;SDS011;2376;53.544;10.226;2022-12-20T12:40:53;9.00;;;8.17;;
4724;SDS011;2376;53.544;10.226;2022-12-20T12:43:47;11.00;;;7.50;;
4724;SDS011;2376;53.544;10.226;2022-12-20T12:46:17;12.67;;;8.10;;
4724;SDS011;2376;53.544;10.226;2022-12-20T12:48:51;9.67;;;8.67;;
4724;SDS011;2376;53.544;10.226;2022-12-20T12:51:23;8.43;;;7.63;;
4724;SDS011;2376;53.544;10.226;2022-12-20T12:54:00;10.33;;;9.07;;
4724;SDS011;2376;53.544;10.226;2022-12-20T12:56:31;11.80;;;9.50;;
4724;SDS011;2376;53.544;10.226;2022-12-20T12:59:18;8.70;;;7.90;;
4724;SDS011;2376;53.544;10.226;2022-12-20T13:01:49;9.77;;;8.77;;
4724;SDS011;2376;53.544;10.226;2022-12-20T13:04:22;10.23;;;8.67;;
4724;SDS011;2376;53.544;10.226;2022-12-20T13:06:53;8.70;;;7.50;;
4724;SDS011;2376;53.544;10.226;2022-12-20T13:09:35;8.43;;;7.70;;
4724;SDS011;2376;53.544;10.226;2022-12-20T13:18:26;9.60;;;8.60;;
4724;SDS011;2376;53.544;10.226;2022-12-20T13:23:43;10.30;;;9.30;;
4724;SDS011;2376;53.544;10.226;2022-12-20T13:29:17;9.97;;;9.03;;
4724;SDS011;2376;53.544;10.226;2022-12-20T13:31:51;10.53;;;9.40;;
4724;SDS011;2376;53.544;10.226;2022-12-20T13:37:25;9.13;;;8.23;;
4724;SDS011;2376;53.544;10.226;2022-12-20T13:39:53;10.13;;;9.13;;
4724;SDS011;2376;53.544;10.226;2022-12-20T13:42:33;9.47;;;8.60;;
4724;SDS011;2376;53.544;10.226;2022-12-20T13:45:03;9.73;;;8.80;;
4724;SDS011;2376;53.544;10.226;2022-12-20T13:47:39;10.27;;;9.27;;
4724;SDS011;2376;53.544;10.226;2022-12-20T13:50:21;10.27;;;9.13;;
4724;SDS011;2376;53.544;10.226;2022-12-20T13:52:51;9.37;;;8.07;;
4724;SDS011;2376;53.544;10.226;2022-12-20T13:55:22;14.20;;;8.40;;
4724;SDS011;2376;53.544;10.226;2022-12-20T13:57:51;10.90;;;8.20;;
4724;SDS011;2376;53.544;10.226;2022-12-20T14:00:21;11.40;;;9.13;;
4724;SDS011;2376;53.544;10.226;2022-12-20T14:02:51;9.20;;;8.10;;
4724;SDS011;2376;53.544;10.226;2022-12-20T14:05:20;11.27;;;7.60;;
4724;SDS011;2376;53.544;10.226;2022-12-20T14:07:52;9.80;;;8.90;;
4724;SDS011;2376;53.544;10.226;2022-12-20T14:10:23;8.87;;;7.80;;
4724;SDS011;2376;53.544;10.226;2022-12-20T14:12:53;8.80;;;7.77;;
4724;SDS011;2376;53.544;10.226;2022-12-20T14:15:21;8.60;;;7.70;;
4724;SDS011;2376;53.544;10.226;2022-12-20T14:17:51;9.10;;;8.30;;
4724;SDS011;2376;53.544;10.226;2022-12-20T14:20:20;9.23;;;6.77;;
4724;SDS011;2376;53.544;10.226;2022-12-20T14:22:51;12.83;;;7.57;;
4724;SDS011;2376;53.544;10.226;2022-12-20T14:25:23;10.90;;;7.53;;
4724;SDS011;2376;53.544;10.226;2022-12-20T14:27:54;10.97;;;8.27;;
4724;SDS011;2376;53.544;10.226;2022-12-20T14:30:25;8.13;;;7.47;;
4724;SDS011;2376;53.544;10.226;2022-12-20T14:32:58;7.33;;;6.63;;
4724;SDS011;2376;53.544;10.226;2022-12-20T14:35:25;10.10;;;7.13;;
4724;SDS011;2376;53.544;10.226;2022-12-20T14:37:54;7.77;;;7.00;;
4724;SDS011;2376;53.544;10.226;2022-12-20T14:40:22;14.60;;;7.17;;
4724;SDS011;2376;53.544;10.226;2022-12-20T14:42:49;8.27;;;7.43;;
4724;SDS011;2376;53.544;10.226;2022-12-20T14:45:17;7.43;;;6.83;;
4724;SDS011;2376;53.544;10.226;2022-12-20T14:47:49;7.90;;;6.63;;
4724;SDS011;2376;53.544;10.226;2022-12-20T14:50:23;9.70;;;7.03;;
4724;SDS011;2376;53.544;10.226;2022-12-20T14:52:55;8.50;;;7.70;;
4724;SDS011;2376;53.544;10.226;2022-12-20T14:55:23;8.20;;;7.50;;
4724;SDS011;2376;53.544;10.226;2022-12-20T14:57:53;9.70;;;7.30;;
4724;SDS011;2376;53.544;10.226;2022-12-20T15:00:22;7.07;;;6.47;;
4724;SDS011;2376;53.544;10.226;2022-12-20T15:02:56;8.07;;;7.37;;
4724;SDS011;2376;53.544;10.226;2022-12-20T15:05:35;9.27;;;7.03;;
4724;SDS011;2376;53.544;10.226;2022-12-20T15:08:14;7.93;;;7.27;;
4724;SDS011;2376;53.544;10.226;2022-12-20T15:10:46;8.00;;;7.13;;
4724;SDS011;2376;53.544;10.226;2022-12-20T15:13:16;6.67;;;6.10;;
4724;SDS011;2376;53.544;10.226;2022-12-20T15:15:44;9.57;;;7.30;;
4724;SDS011;2376;53.544;10.226;2022-12-20T15:18:11;7.70;;;7.10;;
4724;SDS011;2376;53.544;10.226;2022-12-20T15:20:40;7.77;;;6.60;;